createdAt,value
2019-03-04T00:01:38.876Z,98.60
2019-03-04T00:04:07.448Z,98.50
2019-03-04T00:06:36.004Z,98.30
2019-03-04T00:09:06.176Z,98.40
2019-03-04T00:11:34.721Z,98.40
2019-03-04T00:14:03.506Z,98.50
2019-03-04T00:16:32.102Z,98.40
2019-03-04T00:19:00.641Z,98.30
2019-03-04T00:21:31.396Z,98.20
2019-03-04T00:24:00.561Z,98.30
2019-03-04T00:26:29.155Z,98.30
2019-03-04T00:28:57.702Z,98.20
2019-03-04T00:31:26.325Z,98.10
2019-03-04T00:33:54.989Z,98.20
2019-03-04T00:36:23.542Z,98.30
2019-03-04T00:38:52.106Z,98.20
2019-03-04T00:41:20.686Z,98.20
2019-03-04T00:43:49.284Z,98.10
2019-03-04T00:46:17.832Z,98.00
2019-03-04T00:48:46.386Z,98.20
2019-03-04T00:51:14.987Z,98.30
2019-03-04T00:53:43.577Z,98.40
2019-03-04T00:56:13.205Z,98.50
2019-03-04T00:58:41.767Z,98.50
2019-03-04T01:01:12.880Z,98.30
2019-03-04T01:03:41.510Z,98.30
2019-03-04T01:06:10.111Z,98.30
2019-03-04T01:08:38.734Z,98.30
2019-03-04T01:11:07.217Z,98.10
2019-03-04T01:13:35.883Z,98.30
2019-03-04T01:16:04.514Z,98.30
2019-03-04T01:18:33.202Z,98.20
2019-03-04T01:21:01.771Z,98.00
2019-03-04T01:23:30.320Z,98.20
2019-03-04T01:25:58.917Z,98.20
2019-03-04T01:28:29.899Z,98.10
2019-03-04T01:30:58.455Z,98.40
2019-03-04T01:33:28.569Z,98.40
2019-03-04T01:35:57.166Z,98.20
2019-03-04T01:38:26.982Z,98.20
2019-03-04T01:40:55.532Z,98.30
2019-03-04T01:43:24.106Z,98.20
2019-03-04T01:45:53.230Z,98.10
2019-03-04T01:48:24.716Z,98.20
2019-03-04T01:50:53.230Z,97.90
2019-03-04T01:53:21.786Z,97.90
2019-03-04T01:55:51.447Z,98.00
2019-03-04T01:58:19.952Z,98.00
2019-03-04T02:00:48.490Z,97.90
2019-03-04T02:03:17.089Z,98.30
2019-03-04T02:05:45.868Z,97.90
2019-03-04T02:08:14.491Z,97.90
2019-03-04T02:10:43.042Z,98.00
2019-03-04T02:13:11.636Z,98.10
2019-03-04T02:15:40.194Z,98.20
2019-03-04T02:18:09.303Z,98.30
2019-03-04T02:20:37.892Z,98.40
2019-03-04T02:23:07.818Z,98.50
2019-03-04T02:25:42.312Z,98.50
2019-03-04T02:28:10.854Z,98.50
2019-03-04T02:30:39.607Z,98.50
2019-03-04T02:33:09.251Z,98.60
2019-03-04T02:35:41.147Z,98.50
2019-03-04T02:38:09.707Z,98.40
2019-03-04T02:40:38.274Z,98.30
2019-03-04T02:43:06.852Z,98.20
2019-03-04T02:45:35.412Z,98.10
2019-03-04T02:48:03.966Z,98.10
2019-03-04T02:50:32.587Z,98.00
2019-03-04T02:53:01.121Z,98.00
2019-03-04T02:55:29.690Z,97.80
2019-03-04T02:57:58.240Z,97.80
2019-03-04T03:00:26.817Z,97.80
2019-03-04T03:02:55.370Z,97.90
2019-03-04T03:05:23.922Z,97.60
2019-03-04T03:07:52.489Z,97.50
2019-03-04T03:10:21.038Z,97.40
2019-03-04T03:12:50.157Z,97.30
2019-03-04T03:15:20.448Z,97.40
2019-03-04T03:17:48.982Z,97.40
2019-03-04T03:20:26.548Z,97.30
2019-03-04T03:22:55.109Z,97.20
2019-03-04T03:25:23.684Z,97.30
2019-03-04T03:27:52.236Z,97.10
2019-03-04T03:30:22.314Z,97.20
2019-03-04T03:32:50.898Z,97.00
2019-03-04T03:35:19.618Z,97.00
2019-03-04T03:37:48.177Z,97.00
2019-03-04T03:40:18.181Z,96.70
2019-03-04T03:42:46.830Z,96.70
2019-03-04T03:45:15.602Z,96.70
2019-03-04T03:47:44.231Z,96.60
2019-03-04T03:50:18.944Z,96.60
2019-03-04T03:52:47.575Z,96.50
2019-03-04T03:55:16.873Z,96.50
2019-03-04T03:57:45.514Z,96.50
2019-03-04T04:00:25.137Z,96.30
2019-03-04T04:02:53.749Z,96.30
2019-03-04T04:05:22.369Z,96.30
2019-03-04T04:07:52.448Z,96.20
2019-03-04T04:10:22.641Z,96.20
2019-03-04T04:12:51.297Z,96.00
2019-03-04T04:15:20.553Z,96.00
2019-03-04T04:17:49.214Z,95.80
2019-03-04T04:20:17.873Z,95.80
2019-03-04T04:22:46.426Z,96.00
2019-03-04T04:25:15.321Z,95.80
2019-03-04T04:27:43.879Z,95.70
2019-03-04T04:30:30.099Z,95.60
2019-03-04T04:32:58.725Z,95.60
2019-03-04T04:35:27.277Z,95.60
2019-03-04T04:37:55.786Z,95.50
2019-03-04T04:40:24.704Z,95.30
2019-03-04T04:42:53.298Z,95.20
2019-03-04T04:45:21.895Z,95.20
2019-03-04T04:47:50.456Z,95.00
2019-03-04T04:50:27.142Z,94.90
2019-03-04T04:52:55.720Z,95.00
2019-03-04T04:55:24.346Z,95.00
2019-03-04T04:57:53.432Z,95.00
2019-03-04T05:00:22.164Z,94.80
2019-03-04T05:02:50.770Z,94.80
2019-03-04T05:05:19.363Z,94.60
2019-03-04T05:07:49.864Z,94.50
2019-03-04T05:10:22.580Z,94.20
2019-03-04T05:12:51.141Z,94.20
2019-03-04T05:15:19.803Z,94.30
2019-03-04T05:17:48.365Z,94.60
2019-03-04T05:20:25.244Z,94.00
2019-03-04T05:22:53.880Z,94.00
2019-03-04T05:25:22.499Z,93.90
2019-03-04T05:27:51.049Z,93.90
2019-03-04T05:30:20.697Z,93.80
2019-03-04T05:32:49.241Z,93.70
2019-03-04T05:35:19.537Z,93.60
2019-03-04T05:37:49.627Z,93.50
2019-03-04T05:40:19.412Z,93.90
2019-03-04T05:42:48.088Z,93.60
2019-03-04T05:45:17.830Z,93.60
2019-03-04T05:47:46.471Z,93.40
2019-03-04T05:50:18.555Z,93.50
2019-03-04T05:52:47.282Z,93.40
2019-03-04T05:55:16.068Z,93.40
2019-03-04T05:57:47.905Z,93.50
2019-03-04T06:00:20.690Z,93.30
2019-03-04T06:02:50.496Z,93.10
2019-03-04T06:05:20.575Z,93.20
2019-03-04T06:07:53.515Z,93.10
2019-03-04T06:10:22.134Z,93.00
2019-03-04T06:12:50.673Z,92.90
2019-03-04T06:15:20.671Z,92.80
2019-03-04T06:17:49.322Z,92.70
2019-03-04T06:20:19.303Z,92.50
2019-03-04T06:22:48.091Z,92.50
2019-03-04T06:25:21.861Z,92.50
2019-03-04T06:27:50.487Z,92.30
2019-03-04T06:30:24.123Z,92.30
2019-03-04T06:32:52.655Z,92.30
2019-03-04T06:35:22.326Z,92.30
2019-03-04T06:37:50.947Z,92.30
2019-03-04T06:40:20.425Z,92.10
2019-03-04T06:42:49.871Z,91.90
2019-03-04T06:45:21.427Z,92.00
2019-03-04T06:47:50.136Z,92.00
2019-03-04T06:50:41.250Z,91.90
2019-03-04T06:53:09.795Z,91.70
2019-03-04T06:55:51.150Z,91.60
2019-03-04T06:58:19.742Z,91.40
2019-03-04T07:00:50.732Z,91.20
2019-03-04T07:03:20.686Z,91.20
2019-03-04T07:05:53.190Z,90.90
2019-03-04T07:08:30.587Z,90.80
2019-03-04T07:11:01.778Z,90.80
2019-03-04T07:13:30.826Z,90.70
2019-03-04T07:15:59.402Z,90.50
2019-03-04T07:18:27.951Z,90.40
2019-03-04T07:20:56.509Z,90.40
2019-03-04T07:23:27.467Z,90.40
2019-03-04T07:25:57.067Z,90.30
2019-03-04T07:28:25.615Z,90.10
2019-03-04T07:30:54.451Z,90.10
2019-03-04T07:33:22.991Z,90.10
2019-03-04T07:35:51.557Z,90.00
2019-03-04T07:38:26.300Z,90.00
2019-03-04T07:40:55.045Z,89.60
2019-03-04T07:43:27.256Z,89.60
2019-03-04T07:45:55.896Z,89.20
2019-03-04T07:48:25.728Z,89.10
2019-03-04T07:50:55.263Z,89.20
2019-03-04T07:53:23.826Z,88.50
2019-03-04T07:55:52.541Z,88.00
2019-03-04T07:58:21.158Z,88.00
2019-03-04T08:00:49.731Z,87.60
2019-03-04T08:03:18.317Z,87.60
2019-03-04T08:05:46.868Z,87.40
2019-03-04T08:08:16.032Z,86.00
2019-03-04T08:10:56.569Z,86.10
2019-03-04T08:13:37.108Z,86.00
2019-03-04T08:16:06.066Z,85.90
2019-03-04T08:18:34.604Z,85.60
2019-03-04T08:21:03.163Z,85.10
2019-03-04T08:23:32.876Z,84.00
2019-03-04T08:26:01.568Z,84.00
2019-03-04T08:28:31.309Z,83.80
2019-03-04T08:30:59.928Z,83.40
2019-03-04T08:33:28.476Z,82.70
2019-03-04T08:35:57.082Z,81.70
2019-03-04T08:38:26.682Z,81.30
2019-03-04T08:40:57.829Z,81.00
2019-03-04T08:43:27.520Z,80.20
2019-03-04T08:45:56.042Z,80.00
2019-03-04T08:48:28.472Z,79.90
2019-03-04T08:50:56.994Z,79.20
2019-03-04T08:53:26.162Z,79.60
2019-03-04T08:55:54.731Z,78.50
2019-03-04T08:58:23.391Z,78.60
2019-03-04T09:00:52.004Z,77.60
2019-03-04T09:03:20.640Z,77.70
2019-03-04T09:05:49.278Z,77.90
2019-03-04T09:08:17.846Z,78.40
2019-03-04T09:10:46.446Z,76.70
2019-03-04T09:13:14.959Z,77.30
2019-03-04T09:15:43.558Z,77.60
2019-03-04T09:18:12.250Z,77.40
2019-03-04T09:20:40.990Z,76.40
2019-03-04T09:23:09.549Z,76.70
2019-03-04T09:25:44.075Z,76.50
2019-03-04T09:28:13.826Z,75.80
2019-03-04T09:30:42.389Z,75.30
2019-03-04T09:33:10.964Z,75.30
2019-03-04T09:35:39.559Z,75.10
2019-03-04T09:38:08.112Z,75.00
2019-03-04T09:40:36.777Z,74.00
2019-03-04T09:43:06.783Z,73.70
2019-03-04T09:45:38.757Z,73.50
2019-03-04T09:48:05.830Z,72.90
2019-03-04T09:50:34.418Z,73.30
2019-03-04T09:53:02.989Z,72.30
2019-03-04T09:55:31.611Z,72.10
2019-03-04T09:58:00.249Z,72.50
2019-03-04T10:00:33.596Z,71.80
2019-03-04T10:03:27.575Z,71.60
2019-03-04T10:06:14.229Z,71.50
2019-03-04T10:08:57.257Z,71.30
2019-03-04T10:11:47.673Z,70.30
2019-03-04T10:14:34.382Z,70.50
2019-03-04T10:17:27.869Z,71.10
2019-03-04T10:20:08.368Z,70.40
2019-03-04T10:22:39.991Z,71.20
2019-03-04T10:25:17.567Z,70.90
2019-03-04T10:28:01.136Z,68.60
2019-03-04T10:30:35.311Z,68.40
2019-03-04T10:33:21.817Z,67.00
2019-03-04T10:36:12.229Z,65.80
2019-03-04T10:39:03.910Z,65.90
2019-03-04T10:41:38.515Z,66.20
2019-03-04T10:44:37.914Z,65.30
2019-03-04T10:47:05.940Z,64.50
2019-03-04T10:49:35.731Z,63.90
2019-03-04T10:52:04.531Z,63.70
2019-03-04T10:54:33.167Z,64.10
2019-03-04T10:57:01.771Z,64.30
2019-03-04T10:59:30.339Z,64.50
2019-03-04T11:01:58.955Z,64.70
2019-03-04T11:04:27.511Z,64.50
2019-03-04T11:06:56.121Z,64.50
2019-03-04T11:09:24.698Z,63.70
2019-03-04T11:11:54.353Z,63.30
2019-03-04T11:14:23.024Z,64.50
2019-03-04T11:16:51.567Z,64.20
2019-03-04T11:19:20.131Z,63.20
2019-03-04T11:21:48.827Z,62.60
2019-03-04T11:24:17.549Z,63.00
2019-03-04T11:26:46.377Z,62.00
2019-03-04T11:29:15.082Z,62.20
2019-03-04T11:31:43.727Z,61.60
2019-03-04T11:34:12.364Z,60.10
2019-03-04T11:36:41.007Z,60.10
2019-03-04T11:39:22.924Z,60.60
2019-03-04T11:41:51.479Z,59.90
2019-03-04T11:44:24.827Z,60.70
2019-03-04T11:46:53.821Z,60.20
2019-03-04T11:49:22.367Z,61.20
2019-03-04T11:51:51.023Z,61.20
2019-03-04T11:54:19.605Z,62.00
2019-03-04T11:56:48.757Z,61.20
2019-03-04T11:59:17.359Z,61.70
2019-03-04T12:01:47.565Z,61.70
2019-03-04T12:04:16.187Z,62.80
2019-03-04T12:06:44.751Z,62.70
2019-03-04T12:09:16.264Z,62.50
2019-03-04T12:11:44.840Z,63.40
2019-03-04T12:14:13.387Z,63.60
2019-03-04T12:16:47.525Z,63.40
2019-03-04T12:19:16.085Z,64.00
2019-03-04T12:21:46.242Z,61.70
2019-03-04T12:24:14.819Z,61.20
2019-03-04T12:26:43.717Z,61.80
2019-03-04T12:29:12.299Z,62.30
2019-03-04T12:31:42.495Z,62.40
2019-03-04T12:34:12.774Z,62.10
2019-03-04T12:36:41.389Z,62.40
2019-03-04T12:39:11.111Z,62.40
2019-03-04T12:41:39.617Z,62.30
2019-03-04T12:52:26.398Z,61.60
2019-03-04T12:54:55.088Z,60.50
2019-03-04T12:57:23.629Z,60.00
2019-03-04T12:59:52.435Z,59.90
2019-03-04T13:02:21.095Z,60.00
2019-03-04T13:04:49.893Z,60.00
2019-03-04T13:07:18.573Z,59.90
2019-03-04T13:09:47.217Z,59.60
2019-03-04T13:12:16.052Z,60.00
2019-03-04T13:14:44.701Z,58.70
2019-03-04T13:17:13.331Z,59.30
2019-03-04T13:19:41.978Z,58.90
2019-03-04T13:22:10.527Z,59.10
2019-03-04T13:24:39.113Z,59.30
2019-03-04T13:27:07.673Z,59.50
2019-03-04T13:29:36.230Z,59.60
2019-03-04T13:32:11.838Z,59.70
2019-03-04T13:48:36.797Z,59.50
2019-03-04T13:51:05.818Z,59.10
2019-03-04T13:53:34.392Z,59.10
2019-03-04T13:56:02.978Z,59.10
2019-03-04T13:58:31.562Z,58.60
2019-03-04T14:01:00.132Z,58.40
2019-03-04T14:03:28.789Z,58.10
2019-03-04T14:05:57.355Z,57.80
2019-03-04T14:08:25.956Z,58.60
2019-03-04T14:10:54.602Z,58.10
2019-03-04T14:13:23.220Z,58.10
2019-03-04T14:15:54.260Z,57.50
2019-03-04T14:18:25.135Z,57.40
2019-03-04T14:20:53.781Z,57.90
2019-03-04T14:23:22.332Z,57.80
2019-03-04T14:25:51.270Z,57.90
2019-03-04T14:28:21.428Z,57.80
2019-03-04T14:30:49.986Z,57.50
2019-03-04T14:33:18.621Z,57.80
2019-03-04T14:35:47.112Z,58.00
2019-03-04T14:38:15.690Z,58.40
2019-03-04T14:40:44.238Z,58.00
2019-03-04T14:43:15.885Z,57.90
2019-03-04T14:45:44.434Z,58.30
2019-03-04T14:48:13.074Z,57.80
2019-03-04T14:50:41.651Z,57.80
2019-03-04T14:53:10.203Z,57.80
2019-03-04T14:55:40.594Z,57.50
2019-03-04T14:58:09.306Z,57.40
2019-03-04T15:00:44.082Z,57.00
2019-03-04T15:03:20.941Z,56.70
2019-03-04T15:05:43.128Z,56.10
2019-03-04T15:08:11.686Z,55.80
2019-03-04T15:10:40.295Z,55.40
2019-03-04T15:13:13.052Z,55.60
2019-03-04T15:15:41.642Z,55.60
2019-03-04T15:18:10.351Z,55.70
2019-03-04T15:20:39.402Z,56.10
2019-03-04T15:23:11.244Z,56.10
2019-03-04T15:25:45.488Z,56.10
2019-03-04T15:28:24.254Z,56.40
2019-03-04T15:30:59.579Z,56.60
2019-03-04T15:33:28.745Z,56.40
2019-03-04T15:35:58.112Z,57.00
2019-03-04T15:38:28.319Z,56.50
2019-03-04T15:40:57.907Z,56.90
2019-03-04T15:43:26.719Z,56.70
2019-03-04T15:45:58.186Z,56.30
2019-03-04T15:48:30.049Z,56.20
2019-03-04T15:50:58.595Z,56.00
2019-03-04T15:53:27.150Z,55.90
2019-03-04T15:55:59.265Z,56.20
2019-03-04T15:58:32.098Z,56.40
2019-03-04T16:01:08.537Z,55.50
2019-03-04T16:03:37.130Z,55.90
2019-03-04T16:06:05.888Z,55.50
2019-03-04T16:08:34.474Z,55.40
2019-03-04T16:11:06.831Z,55.50
2019-03-04T16:13:36.445Z,55.10
2019-03-04T16:16:08.146Z,55.00
2019-03-04T16:18:37.287Z,55.00
2019-03-04T16:21:05.929Z,55.00
2019-03-04T16:23:42.138Z,54.90
2019-03-04T16:26:11.779Z,55.20
2019-03-04T16:28:44.707Z,56.60
2019-03-04T16:31:16.587Z,56.20
2019-03-04T16:33:46.861Z,56.00
2019-03-04T16:36:19.990Z,56.00
2019-03-04T16:38:53.153Z,56.60
2019-03-04T16:41:26.175Z,56.40
2019-03-04T16:43:54.727Z,56.70
2019-03-04T16:46:23.303Z,56.90
2019-03-04T16:48:51.937Z,57.30
2019-03-04T16:51:22.067Z,57.50
2019-03-04T16:53:54.756Z,57.90
2019-03-04T16:56:25.720Z,58.10
2019-03-04T16:58:58.451Z,58.00
2019-03-04T17:01:27.628Z,58.60
2019-03-04T17:03:56.305Z,58.50
2019-03-04T17:06:26.377Z,58.80
2019-03-04T17:08:55.071Z,58.70
2019-03-04T17:11:25.641Z,58.50
2019-03-04T17:13:53.967Z,58.40
2019-03-04T17:16:23.904Z,58.70
2019-03-04T17:18:52.548Z,58.70
2019-03-04T17:21:28.487Z,58.70
2019-03-04T17:23:57.121Z,58.50
2019-03-04T17:26:33.284Z,58.70
2019-03-04T17:29:07.464Z,58.30
2019-03-04T17:31:52.038Z,58.30
2019-03-04T17:34:26.291Z,58.20
2019-03-04T17:37:03.655Z,58.30
2019-03-04T17:39:34.975Z,58.50
2019-03-04T17:42:05.005Z,58.50
2019-03-04T17:44:34.451Z,58.20
2019-03-04T17:47:03.019Z,58.70
2019-03-04T17:49:31.647Z,58.10
2019-03-04T17:52:00.279Z,58.60
2019-03-04T17:54:31.199Z,58.00
2019-03-04T17:56:59.819Z,57.70
2019-03-04T17:59:28.408Z,57.80
2019-03-04T18:01:57.042Z,57.20
2019-03-04T18:04:25.601Z,56.80
2019-03-04T18:06:56.241Z,56.60
2019-03-04T18:09:25.871Z,56.50
2019-03-04T18:11:54.455Z,56.20
2019-03-04T18:14:23.088Z,56.00
2019-03-04T18:16:54.085Z,56.00
2019-03-04T18:19:23.228Z,55.50
2019-03-04T18:22:05.522Z,55.50
2019-03-04T18:24:37.855Z,55.10
2019-03-04T18:27:23.114Z,55.00
2019-03-04T18:29:56.380Z,54.70
2019-03-04T18:32:43.306Z,54.00
2019-03-04T18:35:23.974Z,53.90
2019-03-04T18:38:04.079Z,54.20
2019-03-04T18:40:44.230Z,53.30
2019-03-04T18:43:24.376Z,53.10
2019-03-04T18:46:01.829Z,52.80
2019-03-04T18:48:55.776Z,52.60
2019-03-04T18:51:24.675Z,52.10
2019-03-04T18:53:54.829Z,51.10
2019-03-04T18:56:23.455Z,50.10
2019-03-04T18:58:52.084Z,49.60
2019-03-04T19:01:21.037Z,48.70
2019-03-04T19:03:49.618Z,48.60
2019-03-04T19:06:18.451Z,48.20
2019-03-04T19:08:47.560Z,47.70
2019-03-04T19:11:16.058Z,47.10
2019-03-04T19:13:46.432Z,46.90
2019-03-04T19:16:36.605Z,46.60
2019-03-04T19:19:06.563Z,46.10
2019-03-04T19:21:35.120Z,45.60
2019-03-04T19:24:03.856Z,45.20
2019-03-04T19:26:33.641Z,44.40
2019-03-04T19:29:02.237Z,44.10
2019-03-04T19:31:31.279Z,43.70
2019-03-04T19:34:01.075Z,43.60
2019-03-04T19:36:29.646Z,43.20
2019-03-04T19:39:02.124Z,43.20
2019-03-04T19:41:30.749Z,43.50
2019-03-04T19:44:00.995Z,43.70
2019-03-04T19:46:31.438Z,43.10
2019-03-04T19:49:01.189Z,42.80
2019-03-04T19:51:31.521Z,42.80
2019-03-04T19:54:05.956Z,42.80
2019-03-04T19:56:36.983Z,43.60
2019-03-04T19:59:08.757Z,42.70
2019-03-04T20:01:41.557Z,43.30
2019-03-04T20:04:10.068Z,42.30
2019-03-04T20:06:39.832Z,42.60
2019-03-04T20:09:09.031Z,42.60
2019-03-04T20:11:41.093Z,42.50
2019-03-04T20:14:11.368Z,42.00
2019-03-04T20:16:41.453Z,42.10
2019-03-04T20:19:12.627Z,42.20
2019-03-04T20:21:41.892Z,42.10
2019-03-04T20:24:11.466Z,42.20
2019-03-04T20:26:41.762Z,42.40
2019-03-04T20:29:10.406Z,42.50
2019-03-04T20:31:46.445Z,42.20
2019-03-04T20:34:16.681Z,42.50
2019-03-04T20:36:45.510Z,42.80
2019-03-04T20:39:15.001Z,42.80
2019-03-04T20:41:43.871Z,43.30
2019-03-04T20:44:14.397Z,43.20
2019-03-04T20:46:43.114Z,43.40
2019-03-04T20:49:11.674Z,43.80
2019-03-04T20:51:40.242Z,43.90
2019-03-04T20:54:11.710Z,44.20
2019-03-04T20:56:45.441Z,44.20
2019-03-04T20:59:14.102Z,44.30
2019-03-04T21:01:45.387Z,44.30
2019-03-04T21:04:14.503Z,44.40
2019-03-04T21:06:46.727Z,44.50
2019-03-04T21:09:19.547Z,43.90
2019-03-04T21:11:50.059Z,43.60
2019-03-04T21:14:18.705Z,43.30
2019-03-04T21:17:01.414Z,43.40
2019-03-04T21:19:30.718Z,43.50
2019-03-04T21:22:03.600Z,43.80
2019-03-04T21:24:32.592Z,44.10
2019-03-04T21:27:08.057Z,44.60
2019-03-04T21:29:37.144Z,44.60
2019-03-04T21:32:25.774Z,44.60
2019-03-04T21:35:07.418Z,44.70
2019-03-04T21:37:38.564Z,45.10
2019-03-04T21:40:17.932Z,45.30
2019-03-04T21:42:53.090Z,45.40
2019-03-04T21:45:52.435Z,45.80
2019-03-04T21:48:27.086Z,46.00
2019-03-04T21:51:14.196Z,46.40
2019-03-04T21:53:49.907Z,47.10
2019-03-04T21:56:33.334Z,47.10
2019-03-04T21:59:13.635Z,47.40
2019-03-04T22:02:02.664Z,47.80
2019-03-04T22:04:31.381Z,47.80
2019-03-04T22:07:05.268Z,48.10
2019-03-04T22:09:36.766Z,48.10
2019-03-04T22:12:08.404Z,48.10
2019-03-04T22:14:38.632Z,48.20
2019-03-04T22:17:09.059Z,48.10
2019-03-04T22:19:43.462Z,48.00
2019-03-04T22:22:22.643Z,48.10
2019-03-04T22:24:55.355Z,47.50
2019-03-04T22:27:26.561Z,47.70
2019-03-04T22:29:58.827Z,47.40
2019-03-04T22:32:42.572Z,47.40
2019-03-04T22:35:17.547Z,47.60
2019-03-04T22:37:47.484Z,47.80
2019-03-04T22:40:23.174Z,48.20
2019-03-04T22:42:53.026Z,48.40
2019-03-04T22:45:26.361Z,48.80
2019-03-04T22:48:00.104Z,49.20
2019-03-04T22:50:34.394Z,49.80
2019-03-04T22:53:06.717Z,49.90
2019-03-04T23:01:32.677Z,50.90
2019-03-04T23:13:25.014Z,52.70
2019-03-04T23:18:53.511Z,54.60
2019-03-04T23:21:23.146Z,55.40
2019-03-04T23:23:53.151Z,56.50
2019-03-04T23:26:25.472Z,57.70
2019-03-04T23:28:57.324Z,58.40
2019-03-04T23:31:31.122Z,59.90
2019-03-04T23:34:05.659Z,61.30
2019-03-04T23:36:37.898Z,62.10
2019-03-04T23:39:13.184Z,63.20
2019-03-04T23:41:44.787Z,64.50
2019-03-04T23:44:16.316Z,65.90
2019-03-04T23:46:56.404Z,67.30
2019-03-04T23:49:16.562Z,67.80
2019-03-04T23:51:45.134Z,68.50
2019-03-04T23:54:47.628Z,68.50
2019-03-04T23:57:18.416Z,68.00
2019-03-04T23:59:46.949Z,62.70
